createdAt,value
2019-02-09T00:02:14.647Z,95017.22
2019-02-09T00:05:15.173Z,95025.02
2019-02-09T00:07:43.710Z,95017.45
2019-02-09T00:10:14.146Z,95008.27
2019-02-09T00:13:05.282Z,95017.50
2019-02-09T00:15:35.874Z,95007.06
2019-02-09T00:18:12.990Z,94995.67
2019-02-09T00:21:14.042Z,95011.45
2019-02-09T00:23:56.978Z,94997.77
2019-02-09T00:26:27.278Z,94989.82
2019-02-09T00:29:05.965Z,94980.77
2019-02-09T00:32:05.550Z,94981.18
2019-02-09T00:34:36.110Z,94970.45
2019-02-09T00:37:04.619Z,94962.47
2019-02-09T00:39:40.812Z,94959.02
2019-02-09T00:42:13.908Z,94966.17
2019-02-09T00:45:01.793Z,94963.50
2019-02-09T00:47:30.314Z,94970.48
2019-02-09T00:50:03.533Z,94961.66
2019-02-09T00:52:32.929Z,94970.50
2019-02-09T00:55:03.423Z,94968.20
2019-02-09T00:57:31.950Z,94970.69
2019-02-09T01:00:20.263Z,94978.95
2019-02-09T01:03:13.001Z,94978.77
2019-02-09T01:06:05.959Z,94992.18
2019-02-09T01:08:48.640Z,94992.34
2019-02-09T01:11:17.563Z,94989.16
2019-02-09T01:14:05.524Z,94985.93
2019-02-09T01:16:37.038Z,94990.55
2019-02-09T01:19:13.135Z,94979.20
2019-02-09T01:22:00.991Z,94984.94
2019-02-09T01:24:30.045Z,94977.95
2019-02-09T01:26:58.578Z,94976.56
2019-02-09T01:29:27.087Z,94973.59
2019-02-09T01:32:03.294Z,94976.71
2019-02-09T01:34:31.823Z,94972.01
2019-02-09T01:37:00.713Z,94972.41
2019-02-09T01:39:29.255Z,94968.34
2019-02-09T01:42:10.298Z,94965.97
2019-02-09T01:44:47.163Z,94964.44
2019-02-09T01:47:15.731Z,94965.57
2019-02-09T01:49:58.584Z,94969.62
2019-02-09T01:52:40.149Z,94963.35
2019-02-09T01:55:33.094Z,94971.73
2019-02-09T01:58:36.711Z,94963.97
2019-02-09T02:01:18.868Z,94962.27
2019-02-09T02:03:47.798Z,94948.33
2019-02-09T02:06:19.767Z,94952.83
2019-02-09T02:08:49.183Z,94952.88
2019-02-09T02:11:17.713Z,94952.64
2019-02-09T02:14:00.429Z,94950.41
2019-02-09T02:16:39.447Z,94947.37
2019-02-09T02:19:08.183Z,94948.92
2019-02-09T02:21:58.991Z,94957.87
2019-02-09T02:24:35.286Z,94956.94
2019-02-09T02:27:03.798Z,94957.05
2019-02-09T02:29:49.896Z,94953.11
2019-02-09T02:32:18.456Z,94947.23
2019-02-09T02:34:54.401Z,94952.75
2019-02-09T02:37:22.954Z,94955.20
2019-02-09T02:39:59.830Z,94946.95
2019-02-09T02:42:37.030Z,94943.14
2019-02-09T02:45:05.584Z,94931.39
2019-02-09T02:47:38.131Z,94938.61
2019-02-09T02:50:08.427Z,94935.13
2019-02-09T02:52:36.955Z,94931.38
2019-02-09T02:55:06.837Z,94931.10
2019-02-09T02:57:37.335Z,94937.55
2019-02-09T03:00:07.571Z,94934.82
2019-02-09T03:02:40.071Z,94932.44
2019-02-09T03:05:08.601Z,94930.80
2019-02-09T03:07:49.909Z,94934.33
2019-02-09T03:16:45.162Z,94921.31
2019-02-09T03:19:16.123Z,94927.20
2019-02-09T03:21:50.427Z,94923.38
2019-02-09T03:26:56.688Z,94923.23
2019-02-09T03:29:25.724Z,94917.09
2019-02-09T03:31:54.776Z,94917.80
2019-02-09T03:34:30.142Z,94912.80
2019-02-09T03:39:42.385Z,94909.43
2019-02-09T03:44:47.142Z,94922.38
2019-02-09T03:47:24.986Z,94923.03
2019-02-09T03:49:54.117Z,94918.23
2019-02-09T03:52:26.089Z,94911.34
2019-02-09T03:54:55.572Z,94906.30
2019-02-09T03:57:25.840Z,94901.95
2019-02-09T03:59:54.858Z,94895.17
2019-02-09T04:02:23.902Z,94892.55
2019-02-09T04:04:57.679Z,94897.89
2019-02-09T04:07:35.635Z,94884.14
2019-02-09T04:10:08.538Z,94871.20
2019-02-09T04:12:40.529Z,94855.10
2019-02-09T04:15:09.579Z,94844.27
2019-02-09T04:17:40.531Z,94848.77
2019-02-09T04:20:18.882Z,94840.41
2019-02-09T04:22:47.940Z,94836.98
2019-02-09T04:27:59.879Z,94850.49
2019-02-09T04:30:40.118Z,94822.98
2019-02-09T04:33:09.649Z,94831.59
2019-02-09T04:35:40.629Z,94833.12
2019-02-09T04:38:11.578Z,94839.08
2019-02-09T04:40:40.692Z,94842.28
2019-02-09T04:45:45.892Z,94843.73
2019-02-09T04:48:47.572Z,94849.56
2019-02-09T04:53:53.020Z,94829.31
2019-02-09T04:56:24.052Z,94823.66
2019-02-09T04:58:53.518Z,94818.77
2019-02-09T05:03:58.247Z,94830.46
2019-02-09T05:09:24.946Z,94855.85
2019-02-09T05:11:54.388Z,94861.78
2019-02-09T05:14:31.701Z,94856.13
2019-02-09T05:17:28.142Z,94871.23
2019-02-09T05:19:57.180Z,94910.13
2019-02-09T05:22:40.256Z,94893.89
2019-02-09T05:25:22.679Z,94880.70
2019-02-09T05:27:51.787Z,94911.63
2019-02-09T05:30:21.631Z,94904.19
2019-02-09T05:38:06.421Z,94912.47
2019-02-09T05:40:37.419Z,94913.88
2019-02-09T05:43:14.956Z,94928.84
2019-02-09T05:45:44.003Z,94934.39
2019-02-09T05:48:17.739Z,94948.01
2019-02-09T05:50:47.194Z,94952.36
2019-02-09T05:53:29.909Z,94962.45
2019-02-09T05:56:21.000Z,94967.92
2019-02-09T05:58:50.742Z,94956.66
2019-02-09T06:03:55.306Z,94972.59
2019-02-09T06:09:34.089Z,94977.45
2019-02-09T06:12:04.055Z,94973.36
2019-02-09T06:14:51.892Z,94989.16
2019-02-09T06:17:24.610Z,94985.63
2019-02-09T06:19:53.749Z,94994.20
2019-02-09T06:24:58.531Z,95019.17
2019-02-09T06:27:28.053Z,95018.63
2019-02-09T06:29:57.318Z,95010.94
2019-02-09T06:32:26.372Z,95035.14
2019-02-09T06:34:55.559Z,95062.74
2019-02-09T06:37:40.595Z,95065.57
2019-02-09T06:40:40.686Z,95083.98
2019-02-09T06:45:45.405Z,95087.02
2019-02-09T06:48:36.244Z,95078.53
2019-02-09T06:53:43.015Z,95085.34
2019-02-09T06:58:47.754Z,95108.00
2019-02-09T07:03:52.474Z,95111.23
2019-02-09T07:06:39.868Z,95126.00
2019-02-09T07:09:10.437Z,95116.16
2019-02-09T07:14:15.681Z,95125.24
2019-02-09T07:16:55.660Z,95114.48
2019-02-09T07:19:26.134Z,95127.19
2019-02-09T07:24:29.506Z,95139.27
2019-02-09T07:26:58.539Z,95137.20
2019-02-09T07:29:28.136Z,95136.60
2019-02-09T07:32:10.934Z,95151.78
2019-02-09T07:34:39.975Z,95145.05
2019-02-09T07:37:21.177Z,95161.86
2019-02-09T07:39:54.056Z,95151.58
2019-02-09T07:42:23.616Z,95152.82
2019-02-09T07:44:55.174Z,95169.15
2019-02-09T07:47:24.214Z,95177.64
2019-02-09T07:49:54.251Z,95168.36
2019-02-09T07:52:23.294Z,95165.30
2019-02-09T07:55:07.433Z,95163.25
2019-02-09T07:57:36.523Z,95157.44
2019-02-09T08:00:33.205Z,95166.16
2019-02-09T08:03:02.239Z,95153.27
2019-02-09T08:05:32.308Z,95157.00
2019-02-09T08:10:39.046Z,95162.54
2019-02-09T08:13:08.071Z,95156.52
2019-02-09T08:15:37.131Z,95169.19
2019-02-09T08:18:06.152Z,95171.29
2019-02-09T08:20:35.657Z,95170.37
2019-02-09T08:23:21.328Z,95156.91
2019-02-09T08:25:50.451Z,95163.00
2019-02-09T08:28:20.678Z,95175.71
2019-02-09T08:33:26.419Z,95162.01
2019-02-09T08:36:12.363Z,95162.58
2019-02-09T08:38:42.399Z,95169.44
2019-02-09T08:43:47.190Z,95168.86
2019-02-09T08:46:18.267Z,95158.59
2019-02-09T08:48:47.319Z,95161.05
2019-02-09T08:51:18.376Z,95153.44
2019-02-09T08:53:48.008Z,95153.36
2019-02-09T08:56:17.055Z,95147.17
2019-02-09T08:58:47.001Z,95153.50
2019-02-09T09:01:20.163Z,95147.44
2019-02-09T09:03:49.232Z,95154.65
2019-02-09T09:06:25.191Z,95168.92
2019-02-09T09:08:54.390Z,95155.23
2019-02-09T09:11:23.436Z,95160.63
2019-02-09T09:13:54.575Z,95152.81
2019-02-09T09:16:23.623Z,95155.04
2019-02-09T09:18:57.361Z,95142.27
2019-02-09T09:21:26.411Z,95141.41
2019-02-09T09:23:57.429Z,95143.75
2019-02-09T09:29:23.722Z,95156.23
2019-02-09T09:32:04.713Z,95144.46
2019-02-09T09:34:48.380Z,95139.42
2019-02-09T09:37:29.975Z,95146.08
2019-02-09T09:40:11.128Z,95144.05
2019-02-09T09:42:54.045Z,95159.36
2019-02-09T09:45:40.623Z,95152.58
2019-02-09T09:50:57.169Z,95153.69
2019-02-09T09:56:25.512Z,95172.74
2019-02-09T09:59:05.938Z,95163.41
2019-02-09T10:04:35.712Z,95168.16
2019-02-09T10:07:16.723Z,95155.27
2019-02-09T10:09:46.406Z,95169.01
2019-02-09T10:12:15.862Z,95177.16
2019-02-09T10:14:44.925Z,95172.33
2019-02-09T10:17:14.169Z,95181.14
2019-02-09T10:19:46.507Z,95179.39
2019-02-09T10:22:15.570Z,95196.64
2019-02-09T10:24:45.159Z,95177.91
2019-02-09T10:27:14.263Z,95176.62
2019-02-09T10:32:26.053Z,95180.77
2019-02-09T10:37:31.372Z,95167.73
2019-02-09T10:40:01.408Z,95162.00
2019-02-09T10:42:32.436Z,95161.09
2019-02-09T10:47:37.211Z,95171.78
2019-02-09T10:50:16.443Z,95181.48
2019-02-09T10:52:54.615Z,95183.29
2019-02-09T10:55:26.306Z,95175.03
2019-02-09T10:57:56.539Z,95170.59
2019-02-09T11:00:29.571Z,95187.70
2019-02-09T11:02:58.733Z,95177.27
2019-02-09T11:05:33.223Z,95169.24
2019-02-09T11:08:04.316Z,95175.91
2019-02-09T11:10:43.099Z,95172.55
2019-02-09T11:13:12.310Z,95185.25
2019-02-09T11:15:43.247Z,95194.92
2019-02-09T11:18:12.303Z,95194.80
2019-02-09T11:21:02.274Z,95186.61
2019-02-09T11:23:31.789Z,95183.07
2019-02-09T11:26:04.091Z,95195.12
2019-02-09T11:28:37.804Z,95208.63
2019-02-09T11:33:42.593Z,95205.95
2019-02-09T11:36:12.154Z,95183.41
2019-02-09T11:38:46.504Z,95197.42
2019-02-09T11:41:15.674Z,95189.34
2019-02-09T11:43:44.820Z,95188.75
2019-02-09T11:46:13.887Z,95199.92
2019-02-09T11:48:43.502Z,95201.13
2019-02-09T11:51:12.650Z,95186.91
2019-02-09T11:53:42.735Z,95180.61
2019-02-09T11:56:12.336Z,95212.37
2019-02-09T11:58:41.452Z,95183.88
2019-02-09T12:01:10.506Z,95180.75
2019-02-09T12:03:39.563Z,95192.34
2019-02-09T12:06:08.764Z,95176.39
2019-02-09T12:08:39.243Z,95184.85
2019-02-09T12:11:08.290Z,95181.08
2019-02-09T12:13:37.466Z,95163.00
2019-02-09T12:16:07.465Z,95163.00
2019-02-09T12:18:36.510Z,95169.92
2019-02-09T12:21:14.753Z,95161.52
2019-02-09T12:23:44.081Z,95168.27
2019-02-09T12:26:13.167Z,95164.52
2019-02-09T12:28:50.005Z,95181.39
2019-02-09T12:31:19.075Z,95181.73
2019-02-09T12:33:48.126Z,95181.00
2019-02-09T12:38:53.754Z,95217.00
2019-02-09T12:44:00.449Z,95195.77
2019-02-09T12:46:33.648Z,95199.77
2019-02-09T12:49:02.682Z,95196.55
2019-02-09T12:51:31.716Z,95201.00
2019-02-09T12:54:01.330Z,95192.63
2019-02-09T12:56:30.411Z,95189.59
2019-02-09T12:58:59.456Z,95185.48
2019-02-09T13:01:32.123Z,95196.13
2019-02-09T13:04:01.184Z,95186.13
2019-02-09T13:09:09.191Z,95198.00
2019-02-09T13:11:40.172Z,95204.93
2019-02-09T13:14:09.873Z,95203.86
2019-02-09T13:19:14.672Z,95211.34
2019-02-09T13:21:43.731Z,95216.53
2019-02-09T13:24:12.763Z,95204.56
2019-02-09T13:26:47.101Z,95204.58
2019-02-09T13:29:16.167Z,95217.26
2019-02-09T13:31:56.290Z,95204.50
2019-02-09T13:34:29.200Z,95209.03
2019-02-09T13:36:58.272Z,95201.82
2019-02-09T13:39:29.008Z,95217.13
2019-02-09T13:41:59.031Z,95230.34
2019-02-09T13:44:28.128Z,95211.63
2019-02-09T13:47:08.959Z,95221.44
2019-02-09T13:52:16.037Z,95220.65
2019-02-09T13:54:56.058Z,95224.34
2019-02-09T13:57:25.220Z,95221.28
2019-02-09T13:59:54.874Z,95215.83
2019-02-09T14:02:29.480Z,95218.34
2019-02-09T14:05:01.768Z,95220.92
2019-02-09T14:07:48.121Z,95218.15
2019-02-09T14:10:27.453Z,95222.29
2019-02-09T14:15:35.954Z,95228.80
2019-02-09T14:18:07.045Z,95232.67
2019-02-09T14:20:36.091Z,95224.03
2019-02-09T14:23:05.127Z,95229.97
2019-02-09T14:25:35.966Z,95222.48
2019-02-09T14:28:05.050Z,95223.13
2019-02-09T14:30:38.348Z,95218.74
2019-02-09T14:33:15.351Z,95217.57
2019-02-09T14:35:45.378Z,95217.53
2019-02-09T14:38:14.905Z,95218.94
2019-02-09T14:40:45.874Z,95209.91
2019-02-09T14:43:14.973Z,95220.95
2019-02-09T14:45:44.646Z,95220.67
2019-02-09T14:48:13.793Z,95224.63
2019-02-09T14:50:42.867Z,95219.91
2019-02-09T14:53:15.111Z,95222.34
2019-02-09T14:58:30.404Z,95215.73
2019-02-09T15:01:04.059Z,95209.75
2019-02-09T15:03:38.757Z,95215.11
2019-02-09T15:06:11.826Z,95220.16
2019-02-09T15:08:44.803Z,95208.66
2019-02-09T15:11:14.363Z,95221.03
2019-02-09T15:16:21.636Z,95211.28
2019-02-09T15:18:50.765Z,95209.14
2019-02-09T15:21:19.791Z,95211.34
2019-02-09T15:23:51.437Z,95214.48
2019-02-09T15:26:20.507Z,95218.37
2019-02-09T15:28:49.575Z,95214.60
2019-02-09T15:31:19.465Z,95215.38
2019-02-09T15:33:54.055Z,95214.25
2019-02-09T15:36:24.301Z,95217.37
2019-02-09T15:38:53.383Z,95215.00
2019-02-09T15:41:28.275Z,95220.08
2019-02-09T15:44:20.532Z,95214.45
2019-02-09T15:46:50.146Z,95218.45
2019-02-09T15:49:19.179Z,95220.83
2019-02-09T15:54:23.909Z,95220.80
2019-02-09T15:57:01.756Z,95226.88
2019-02-09T15:59:30.802Z,95224.77
2019-02-09T16:02:08.903Z,95228.07
2019-02-09T16:04:38.881Z,95230.95
2019-02-09T16:07:11.601Z,95245.26
2019-02-09T16:09:41.311Z,95241.67
2019-02-09T16:12:16.819Z,95244.01
2019-02-09T16:15:05.754Z,95249.08
2019-02-09T16:17:36.074Z,95246.06
2019-02-09T16:20:21.487Z,95254.75
2019-02-09T16:22:57.547Z,95250.25
2019-02-09T16:25:26.751Z,95252.52
2019-02-09T16:30:31.541Z,95250.84
2019-02-09T16:33:01.588Z,95250.13
2019-02-09T16:35:31.103Z,95253.64
2019-02-09T16:38:04.800Z,95263.35
2019-02-09T16:40:34.006Z,95266.88
2019-02-09T16:45:38.746Z,95257.88
2019-02-09T16:48:12.239Z,95266.13
2019-02-09T16:50:41.298Z,95263.48
2019-02-09T16:53:10.333Z,95262.11
2019-02-09T16:55:39.912Z,95262.58
2019-02-09T16:58:08.976Z,95265.42
2019-02-09T17:00:44.279Z,95266.72
2019-02-09T17:03:14.286Z,95272.55
2019-02-09T17:05:43.325Z,95269.16
2019-02-09T17:08:13.153Z,95271.22
2019-02-09T17:10:42.217Z,95267.53
2019-02-09T17:13:21.859Z,95276.05
2019-02-09T17:18:33.479Z,95283.97
2019-02-09T17:23:44.591Z,95297.67
2019-02-09T17:26:15.085Z,95300.31
2019-02-09T17:28:42.665Z,95296.91
2019-02-09T17:32:55.726Z,95298.62
2019-02-09T17:35:24.778Z,95297.95
2019-02-09T17:37:53.819Z,95302.42
2019-02-09T17:40:42.488Z,95306.14
2019-02-09T17:43:14.836Z,95310.03
2019-02-09T17:45:55.129Z,95309.03
2019-02-09T17:48:45.539Z,95312.67
2019-02-09T17:53:53.035Z,95310.15
2019-02-09T17:56:22.244Z,95309.20
2019-02-09T17:58:54.633Z,95311.39
2019-02-09T18:01:23.597Z,95317.95
2019-02-09T18:04:00.288Z,95311.91
2019-02-09T18:06:31.255Z,95316.91
2019-02-09T18:09:07.799Z,95319.14
2019-02-09T18:11:36.859Z,95321.68
2019-02-09T18:14:06.810Z,95315.44
2019-02-09T18:16:44.159Z,95323.67
2019-02-09T18:19:15.590Z,95321.74
2019-02-09T18:21:46.627Z,95324.08
2019-02-09T18:24:15.670Z,95326.14
2019-02-09T18:26:49.413Z,95330.31
2019-02-09T18:29:18.455Z,95329.52
2019-02-09T18:31:51.742Z,95326.50
2019-02-09T18:34:20.830Z,95323.65
2019-02-09T18:37:07.486Z,95322.21
2019-02-09T18:40:08.113Z,95321.02
2019-02-09T18:45:16.102Z,95309.22
2019-02-09T18:47:54.298Z,95310.81
2019-02-09T18:50:24.228Z,95308.77
2019-02-09T18:53:04.651Z,95309.55
2019-02-09T18:55:42.961Z,95304.70
2019-02-09T18:58:13.049Z,95301.62
2019-02-09T19:00:45.490Z,95298.11
2019-02-09T19:03:14.537Z,95298.20
2019-02-09T19:05:59.095Z,95293.30
2019-02-09T19:08:38.278Z,95291.86
2019-02-09T19:11:07.690Z,95286.92
2019-02-09T19:13:36.812Z,95289.66
2019-02-09T19:16:06.793Z,95293.69
2019-02-09T19:19:08.066Z,95291.02
2019-02-09T19:21:37.110Z,95291.02
2019-02-09T19:24:07.244Z,95286.06
2019-02-09T19:26:38.315Z,95280.92
2019-02-09T19:29:07.561Z,95286.78
2019-02-09T19:31:43.010Z,95285.70
2019-02-09T19:34:12.886Z,95277.56
2019-02-09T19:36:54.517Z,95279.14
2019-02-09T19:39:23.554Z,95278.02
2019-02-09T19:42:06.901Z,95278.84
2019-02-09T19:47:12.263Z,95280.06
2019-02-09T19:49:59.391Z,95283.05
2019-02-09T19:52:42.092Z,95283.77
2019-02-09T19:55:14.761Z,95276.76
2019-02-09T20:00:29.075Z,95280.30
2019-02-09T20:03:07.267Z,95269.28
2019-02-09T20:05:36.303Z,95274.19
2019-02-09T20:13:18.621Z,95259.00
2019-02-09T20:18:23.603Z,95257.78
2019-02-09T20:20:56.679Z,95259.25
2019-02-09T20:23:27.122Z,95260.45
2019-02-09T20:31:09.555Z,95268.47
2019-02-09T20:33:46.718Z,95267.28
2019-02-09T20:36:17.711Z,95269.55
2019-02-09T20:39:07.925Z,95261.27
2019-02-09T20:41:44.415Z,95266.66
2019-02-09T20:44:13.465Z,95268.10
2019-02-09T20:49:18.548Z,95276.98
2019-02-09T20:51:49.539Z,95278.97
2019-02-09T20:54:18.724Z,95285.57
2019-02-09T20:56:50.988Z,95286.14
2019-02-09T20:59:20.133Z,95282.42
2019-02-09T21:04:24.880Z,95274.19
2019-02-09T21:12:07.774Z,95278.40
2019-02-09T21:14:36.892Z,95280.35
2019-02-09T21:17:05.912Z,95272.84
2019-02-09T21:19:35.852Z,95271.58
2019-02-09T21:24:40.636Z,95278.94
2019-02-09T21:27:09.751Z,95278.35
2019-02-09T21:29:38.849Z,95272.92
2019-02-09T21:32:21.250Z,95277.75
2019-02-09T21:34:50.700Z,95290.63
2019-02-09T21:37:19.795Z,95295.46
2019-02-09T21:39:48.835Z,95297.38
2019-02-09T21:42:33.510Z,95291.73
2019-02-09T21:45:02.727Z,95289.63
2019-02-09T21:47:32.105Z,95293.22
2019-02-09T21:52:38.912Z,95298.39
2019-02-09T21:55:19.646Z,95296.99
2019-02-09T21:57:48.795Z,95299.16
2019-02-09T22:02:55.605Z,95302.97
2019-02-09T22:05:28.241Z,95299.38
2019-02-09T22:07:58.327Z,95299.05
2019-02-09T22:10:32.076Z,95301.56
2019-02-09T22:13:11.858Z,95301.41
2019-02-09T22:15:41.028Z,95298.08
2019-02-09T22:18:23.638Z,95292.88
2019-02-09T22:21:01.264Z,95286.61
2019-02-09T22:23:30.512Z,95288.37
2019-02-09T22:26:01.579Z,95287.42
2019-02-09T22:28:30.582Z,95275.05
2019-02-09T22:31:02.677Z,95268.67
2019-02-09T22:33:32.553Z,95267.55
2019-02-09T22:36:02.593Z,95266.27
2019-02-09T22:38:38.883Z,95266.10
2019-02-09T22:41:07.890Z,95262.80
2019-02-09T22:43:59.033Z,95245.53
2019-02-09T22:49:06.981Z,95256.91
2019-02-09T22:54:17.614Z,95261.72
2019-02-09T22:59:23.164Z,95257.27
2019-02-09T23:02:03.060Z,95252.83
2019-02-09T23:04:41.106Z,95246.41
2019-02-09T23:07:10.147Z,95247.05
2019-02-09T23:09:41.140Z,95248.55
2019-02-09T23:12:13.764Z,95250.65
2019-02-09T23:14:46.782Z,95246.23
2019-02-09T23:17:15.823Z,95249.68
2019-02-09T23:19:50.881Z,95246.45
2019-02-09T23:22:19.927Z,95245.41
2019-02-09T23:25:04.311Z,95243.17
2019-02-09T23:27:33.425Z,95231.88
2019-02-09T23:33:01.697Z,95227.02
2019-02-09T23:35:30.866Z,95222.41
2019-02-09T23:38:01.012Z,95219.48
2019-02-09T23:40:31.033Z,95215.14
2019-02-09T23:43:02.267Z,95214.50
2019-02-09T23:48:15.216Z,95221.10
2019-02-09T23:50:44.382Z,95221.02
2019-02-09T23:53:13.421Z,95220.48
2019-02-09T23:55:43.370Z,95219.84
2019-02-09T23:58:12.874Z,95205.44
